createdAt,value
2022-09-22T00:01:19.629Z,6.70
2022-09-22T00:03:49.778Z,6.80
2022-09-22T00:06:19.571Z,6.70
2022-09-22T00:08:53.281Z,6.80
2022-09-22T00:11:23.503Z,6.70
2022-09-22T00:13:54.258Z,6.70
2022-09-22T00:16:25.268Z,6.80
2022-09-22T00:18:53.226Z,6.90
2022-09-22T00:21:23.226Z,6.80
2022-09-22T00:23:53.427Z,6.80
2022-09-22T00:26:23.893Z,6.60
2022-09-22T00:28:53.116Z,6.50
2022-09-22T00:31:22.962Z,6.50
2022-09-22T00:33:51.735Z,6.50
2022-09-22T00:36:21.551Z,6.50
2022-09-22T00:38:50.509Z,6.50
2022-09-22T00:41:21.260Z,6.50
2022-09-22T00:43:51.419Z,6.50
2022-09-22T00:46:23.685Z,6.50
2022-09-22T00:48:53.647Z,6.40
2022-09-22T00:51:25.507Z,6.40
2022-09-22T00:53:55.069Z,6.40
2022-09-22T00:56:27.176Z,6.40
2022-09-22T00:58:58.619Z,6.50
2022-09-22T01:01:26.590Z,6.40
2022-09-22T01:03:56.299Z,6.40
2022-09-22T01:06:28.753Z,6.40
2022-09-22T01:08:57.360Z,6.40
2022-09-22T01:11:28.883Z,6.50
2022-09-22T01:14:04.380Z,6.50
2022-09-22T01:16:43.702Z,6.50
2022-09-22T01:19:40.597Z,6.60
2022-09-22T01:22:19.224Z,6.60
2022-09-22T01:24:55.916Z,6.50
2022-09-22T01:27:54.039Z,6.50
2022-09-22T01:30:25.199Z,6.40
2022-09-22T01:33:24.292Z,6.30
2022-09-22T01:36:06.960Z,6.30
2022-09-22T01:38:41.882Z,6.30
2022-09-22T01:41:17.018Z,6.30
2022-09-22T01:43:50.159Z,6.30
2022-09-22T01:46:26.089Z,6.30
2022-09-22T01:48:56.779Z,6.30
2022-09-22T01:51:28.393Z,6.40
2022-09-22T01:54:02.471Z,6.30
2022-09-22T01:56:34.411Z,6.20
2022-09-22T01:59:05.724Z,6.10
2022-09-22T02:01:39.798Z,6.10
2022-09-22T02:04:12.470Z,6.20
2022-09-22T02:06:44.395Z,6.20
2022-09-22T02:09:14.188Z,6.20
2022-09-22T02:11:43.210Z,6.00
2022-09-22T02:14:11.992Z,5.90
2022-09-22T02:16:41.339Z,5.80
2022-09-22T02:19:13.795Z,5.70
2022-09-22T02:21:44.965Z,5.60
2022-09-22T02:24:30.895Z,5.60
2022-09-22T02:27:00.061Z,5.60
2022-09-22T02:29:31.098Z,5.60
2022-09-22T02:32:02.979Z,5.60
2022-09-22T02:34:30.938Z,5.60
2022-09-22T02:37:06.040Z,5.60
2022-09-22T02:39:39.042Z,5.60
2022-09-22T02:42:17.458Z,5.70
2022-09-22T02:44:50.659Z,5.70
2022-09-22T02:47:27.232Z,5.70
2022-09-22T02:49:58.628Z,5.70
2022-09-22T02:52:29.121Z,5.70
2022-09-22T02:54:57.377Z,5.60
2022-09-22T02:57:25.217Z,5.70
2022-09-22T02:59:53.003Z,5.70
2022-09-22T03:02:22.435Z,5.70
2022-09-22T03:04:51.623Z,5.70
2022-09-22T03:07:19.575Z,5.70
2022-09-22T03:09:47.726Z,5.70
2022-09-22T03:12:15.578Z,5.70
2022-09-22T03:14:44.012Z,5.60
2022-09-22T03:17:11.921Z,5.60
2022-09-22T03:19:41.086Z,5.70
2022-09-22T03:22:08.861Z,5.60
2022-09-22T03:24:36.594Z,5.50
2022-09-22T03:27:04.625Z,5.50
2022-09-22T03:29:32.547Z,5.50
2022-09-22T03:32:00.377Z,5.50
2022-09-22T03:34:28.140Z,5.50
2022-09-22T03:36:57.240Z,5.50
2022-09-22T03:39:24.962Z,5.50
2022-09-22T03:41:52.806Z,5.50
2022-09-22T03:44:20.570Z,5.40
2022-09-22T03:46:48.486Z,5.30
2022-09-22T03:49:16.218Z,5.30
2022-09-22T03:51:44.066Z,5.20
2022-09-22T03:54:13.498Z,5.20
2022-09-22T03:56:41.230Z,5.20
2022-09-22T03:59:10.320Z,5.00
2022-09-22T04:01:38.263Z,5.00
2022-09-22T04:04:06.450Z,5.00
2022-09-22T04:06:34.954Z,5.00
2022-09-22T04:09:02.741Z,5.00
2022-09-22T04:11:32.081Z,5.00
2022-09-22T04:14:01.318Z,5.00
2022-09-22T04:16:29.727Z,5.00
2022-09-22T04:18:57.861Z,5.00
2022-09-22T04:21:25.682Z,5.10
2022-09-22T04:23:53.480Z,5.00
2022-09-22T04:26:21.230Z,5.00
2022-09-22T04:28:50.376Z,5.00
2022-09-22T04:31:19.633Z,5.00
2022-09-22T04:33:49.584Z,4.90
2022-09-22T04:36:20.630Z,4.90
2022-09-22T04:38:48.439Z,4.80
2022-09-22T04:41:16.587Z,4.70
2022-09-22T04:43:44.399Z,4.60
2022-09-22T04:46:13.485Z,4.60
2022-09-22T04:48:41.300Z,4.70
2022-09-22T04:51:09.042Z,4.70
2022-09-22T04:53:36.967Z,4.70
2022-09-22T04:56:05.198Z,4.70
2022-09-22T04:58:32.945Z,4.70
2022-09-22T05:01:03.713Z,4.80
2022-09-22T05:03:33.037Z,4.80
2022-09-22T05:06:00.868Z,4.80
2022-09-22T05:08:28.644Z,4.80
2022-09-22T05:10:56.759Z,4.90
2022-09-22T05:13:27.517Z,4.90
2022-09-22T05:15:55.276Z,4.80
2022-09-22T05:18:23.575Z,4.80
2022-09-22T05:20:52.641Z,4.80
2022-09-22T05:23:20.407Z,4.80
2022-09-22T05:25:48.264Z,4.80
2022-09-22T05:28:25.690Z,4.80
2022-09-22T05:30:55.252Z,4.80
2022-09-22T05:33:23.499Z,4.80
2022-09-22T05:35:52.660Z,4.80
2022-09-22T05:38:20.483Z,4.80
2022-09-22T05:40:48.760Z,4.80
2022-09-22T05:43:16.886Z,4.70
2022-09-22T05:45:45.058Z,4.80
2022-09-22T05:48:12.983Z,4.80
2022-09-22T05:50:40.707Z,4.70
2022-09-22T05:53:11.248Z,4.80
2022-09-22T05:55:40.076Z,5.00
2022-09-22T05:58:09.273Z,5.10
2022-09-22T06:00:37.081Z,5.30
2022-09-22T06:03:05.237Z,5.40
2022-09-22T06:05:35.796Z,5.40
2022-09-22T06:08:06.914Z,5.20
2022-09-22T06:10:38.227Z,5.10
2022-09-22T06:13:07.687Z,5.10
2022-09-22T06:15:36.278Z,5.10
2022-09-22T06:18:07.012Z,5.20
2022-09-22T06:20:35.332Z,5.30
2022-09-22T06:23:03.396Z,5.30
2022-09-22T06:25:31.656Z,5.40
2022-09-22T06:28:02.234Z,5.50
2022-09-22T06:30:30.775Z,5.40
2022-09-22T06:32:58.597Z,5.50
2022-09-22T06:35:28.121Z,5.50
2022-09-22T06:37:59.418Z,5.70
2022-09-22T06:40:28.699Z,5.70
2022-09-22T06:43:07.613Z,5.70
2022-09-22T06:45:35.501Z,5.80
2022-09-22T06:48:07.587Z,5.90
2022-09-22T06:50:38.201Z,5.90
2022-09-22T06:53:08.078Z,6.00
2022-09-22T06:55:37.375Z,6.10
2022-09-22T06:58:06.445Z,6.20
2022-09-22T07:00:34.368Z,6.20
2022-09-22T07:03:07.135Z,6.30
2022-09-22T07:05:36.523Z,6.40
2022-09-22T07:08:05.698Z,6.50
2022-09-22T07:10:37.730Z,6.60
2022-09-22T07:13:07.114Z,6.60
2022-09-22T07:15:37.165Z,6.70
2022-09-22T07:18:05.468Z,6.80
2022-09-22T07:20:35.574Z,6.90
2022-09-22T07:23:03.330Z,7.00
2022-09-22T07:25:33.584Z,7.10
2022-09-22T07:28:04.950Z,7.20
2022-09-22T07:30:36.339Z,7.30
2022-09-22T07:33:05.773Z,7.40
2022-09-22T07:35:35.556Z,7.50
2022-09-22T07:38:03.598Z,7.60
2022-09-22T07:40:32.435Z,7.70
2022-09-22T07:43:00.366Z,7.80
2022-09-22T07:45:28.180Z,7.90
2022-09-22T07:48:15.094Z,8.00
2022-09-22T07:50:42.843Z,8.10
2022-09-22T07:53:10.588Z,8.10
2022-09-22T07:55:38.486Z,8.20
2022-09-22T07:58:06.861Z,8.30
2022-09-22T08:00:36.349Z,8.40
2022-09-22T08:03:07.605Z,8.50
2022-09-22T08:05:35.317Z,8.60
2022-09-22T08:08:05.920Z,8.60
2022-09-22T08:10:35.767Z,8.70
2022-09-22T08:13:04.633Z,8.80
2022-09-22T08:15:32.451Z,8.90
2022-09-22T08:18:00.188Z,9.00
2022-09-22T08:20:29.691Z,9.10
2022-09-22T08:23:00.785Z,9.10
2022-09-22T08:25:28.798Z,9.20
2022-09-22T08:27:56.529Z,9.40
2022-09-22T08:30:24.301Z,9.50
2022-09-22T08:32:52.050Z,9.60
2022-09-22T08:35:19.782Z,9.70
2022-09-22T08:37:50.564Z,9.80
2022-09-22T08:40:23.586Z,9.80
2022-09-22T08:42:52.606Z,9.90
2022-09-22T08:45:29.153Z,10.00
2022-09-22T08:48:21.287Z,10.20
2022-09-22T08:51:09.035Z,10.20
2022-09-22T08:53:43.812Z,10.30
2022-09-22T08:56:19.906Z,10.40
2022-09-22T08:58:55.191Z,10.60
2022-09-22T09:01:38.890Z,10.60
2022-09-22T09:04:40.379Z,10.80
2022-09-22T09:07:14.242Z,10.80
2022-09-22T09:09:57.887Z,11.00
2022-09-22T09:12:44.417Z,11.10
2022-09-22T09:15:28.763Z,11.20
2022-09-22T09:18:02.582Z,11.30
2022-09-22T09:20:38.805Z,11.40
2022-09-22T09:23:14.493Z,11.50
2022-09-22T09:25:45.020Z,11.60
2022-09-22T09:28:16.243Z,11.70
2022-09-22T09:30:46.833Z,11.80
2022-09-22T09:33:22.698Z,11.90
2022-09-22T09:35:53.651Z,12.00
2022-09-22T09:38:28.204Z,12.10
2022-09-22T09:41:02.695Z,12.20
2022-09-22T09:43:33.400Z,12.30
2022-09-22T09:46:13.560Z,12.40
2022-09-22T09:48:52.198Z,12.60
2022-09-22T09:51:21.150Z,12.60
2022-09-22T09:53:52.442Z,12.70
2022-09-22T09:56:26.160Z,12.80
2022-09-22T09:59:16.903Z,12.90
2022-09-22T10:01:47.010Z,13.00
2022-09-22T10:04:29.433Z,13.10
2022-09-22T10:07:10.314Z,13.20
2022-09-22T10:09:38.500Z,13.30
2022-09-22T10:12:20.985Z,13.30
2022-09-22T10:14:51.403Z,13.50
2022-09-22T10:17:23.292Z,13.60
2022-09-22T10:19:51.670Z,13.60
2022-09-22T10:22:28.006Z,13.60
2022-09-22T10:25:00.668Z,13.70
2022-09-22T10:27:31.755Z,13.80
2022-09-22T10:30:15.255Z,13.80
2022-09-22T10:32:43.168Z,13.90
2022-09-22T10:35:28.056Z,14.00
2022-09-22T10:37:58.230Z,14.00
2022-09-22T10:40:27.460Z,14.10
2022-09-22T10:42:59.689Z,14.20
2022-09-22T10:45:41.201Z,14.20
2022-09-22T10:51:00.303Z,14.50
2022-09-22T10:53:37.601Z,14.60
2022-09-22T10:56:14.438Z,15.00
2022-09-22T10:58:59.434Z,15.50
2022-09-22T11:01:43.219Z,15.60
2022-09-22T11:04:25.799Z,15.80
2022-09-22T11:07:33.637Z,16.00
2022-09-22T11:10:31.172Z,16.20
2022-09-22T11:13:07.545Z,16.30
2022-09-22T11:15:56.470Z,16.70
2022-09-22T11:18:43.029Z,16.90
2022-09-22T11:21:23.978Z,17.10
2022-09-22T11:24:08.794Z,17.00
2022-09-22T11:26:50.168Z,17.10
2022-09-22T11:29:56.793Z,17.30
2022-09-22T11:32:47.024Z,17.60
2022-09-22T11:35:28.889Z,17.80
2022-09-22T11:38:13.091Z,18.00
2022-09-22T11:41:08.491Z,18.20
2022-09-22T11:43:57.000Z,18.40
2022-09-22T11:46:37.084Z,18.50
2022-09-22T11:49:17.772Z,18.40
2022-09-22T11:51:57.999Z,18.30
2022-09-22T11:55:00.606Z,18.20
2022-09-22T11:57:32.070Z,17.90
2022-09-22T12:00:05.578Z,17.60
2022-09-22T12:02:43.170Z,17.50
2022-09-22T12:05:16.895Z,17.60
2022-09-22T12:07:50.827Z,17.70
2022-09-22T12:10:23.827Z,17.70
2022-09-22T12:12:52.898Z,17.80
2022-09-22T12:15:26.272Z,18.00
2022-09-22T12:18:02.611Z,18.10
2022-09-22T12:20:39.212Z,18.10
2022-09-22T12:23:19.431Z,18.30
2022-09-22T12:25:50.534Z,18.50
2022-09-22T12:28:20.678Z,18.70
2022-09-22T12:31:03.310Z,19.00
2022-09-22T12:33:32.588Z,19.00
2022-09-22T12:36:03.618Z,18.90
2022-09-22T12:38:32.245Z,19.00
2022-09-22T12:41:04.200Z,19.20
2022-09-22T12:43:34.298Z,19.30
2022-09-22T12:46:06.751Z,19.40
2022-09-22T12:48:37.097Z,19.60
2022-09-22T12:51:29.303Z,19.60
2022-09-22T12:54:30.246Z,19.70
2022-09-22T12:57:00.271Z,19.60
2022-09-22T13:00:13.845Z,19.70
2022-09-22T13:02:44.470Z,19.90
2022-09-22T13:05:34.939Z,20.40
2022-09-22T13:08:04.275Z,20.40
2022-09-22T13:10:43.293Z,20.20
2022-09-22T13:13:24.478Z,20.00
2022-09-22T13:15:59.279Z,19.80
2022-09-22T13:18:32.321Z,19.30
2022-09-22T13:21:01.053Z,19.00
2022-09-22T13:23:30.185Z,18.90
2022-09-22T13:26:07.962Z,18.60
2022-09-22T13:28:35.762Z,18.50
2022-09-22T13:31:06.424Z,18.50
2022-09-22T13:33:36.551Z,18.60
2022-09-22T13:36:07.130Z,18.80
2022-09-22T13:38:38.732Z,19.00
2022-09-22T13:41:13.478Z,19.10
2022-09-22T13:43:44.330Z,19.10
2022-09-22T13:46:20.703Z,18.80
2022-09-22T13:48:49.727Z,18.70
2022-09-22T13:51:18.399Z,18.50
2022-09-22T13:53:53.132Z,18.30
2022-09-22T13:56:23.423Z,18.20
2022-09-22T13:58:55.483Z,18.10
2022-09-22T14:01:25.842Z,18.00
2022-09-22T14:03:55.178Z,17.90
2022-09-22T14:06:25.430Z,17.80
2022-09-22T14:08:55.741Z,17.80
2022-09-22T14:11:25.612Z,17.90
2022-09-22T14:14:00.706Z,18.00
2022-09-22T14:16:33.519Z,18.10
2022-09-22T14:19:06.222Z,18.20
2022-09-22T14:21:41.207Z,18.10
2022-09-22T14:24:13.650Z,18.00
2022-09-22T14:26:47.164Z,17.90
2022-09-22T14:29:19.067Z,17.80
2022-09-22T14:31:56.198Z,17.70
2022-09-22T14:34:27.131Z,17.50
2022-09-22T14:36:56.186Z,17.40
2022-09-22T14:39:31.825Z,17.40
2022-09-22T14:42:08.932Z,17.50
2022-09-22T14:44:44.957Z,17.60
2022-09-22T14:47:25.620Z,17.70
2022-09-22T14:50:19.956Z,17.80
2022-09-22T14:52:55.533Z,17.90
2022-09-22T14:55:35.833Z,17.90
2022-09-22T14:58:06.701Z,18.00
2022-09-22T15:00:52.781Z,18.00
2022-09-22T15:03:24.617Z,17.90
2022-09-22T15:05:52.414Z,17.70
2022-09-22T15:08:27.640Z,17.50
2022-09-22T15:10:59.336Z,17.30
2022-09-22T15:13:37.439Z,17.30
2022-09-22T15:16:06.598Z,17.30
2022-09-22T15:18:34.647Z,17.40
2022-09-22T15:21:11.202Z,17.40
2022-09-22T15:23:42.543Z,17.30
2022-09-22T15:26:16.920Z,17.30
2022-09-22T15:28:47.735Z,17.30
2022-09-22T15:31:22.354Z,17.30
2022-09-22T15:33:50.353Z,17.20
2022-09-22T15:36:20.739Z,17.10
2022-09-22T15:38:48.695Z,17.00
2022-09-22T15:41:17.753Z,16.80
2022-09-22T15:43:45.703Z,16.70
2022-09-22T15:46:28.502Z,16.60
2022-09-22T15:49:00.443Z,16.50
2022-09-22T15:51:30.353Z,16.50
2022-09-22T15:53:58.294Z,16.40
2022-09-22T15:56:29.950Z,16.30
2022-09-22T15:59:00.959Z,16.30
2022-09-22T16:01:29.369Z,16.20
2022-09-22T16:04:00.115Z,16.10
2022-09-22T16:06:28.834Z,16.10
2022-09-22T16:08:58.357Z,16.00
2022-09-22T16:11:29.742Z,16.00
2022-09-22T16:14:00.534Z,15.90
2022-09-22T16:16:29.516Z,15.80
2022-09-22T16:18:58.505Z,15.80
2022-09-22T16:21:29.325Z,15.80
2022-09-22T16:24:01.781Z,15.70
2022-09-22T16:26:33.477Z,15.70
2022-09-22T16:29:01.867Z,15.60
2022-09-22T16:31:29.708Z,15.60
2022-09-22T16:33:59.014Z,15.50
2022-09-22T16:36:28.963Z,15.50
2022-09-22T16:38:57.438Z,15.50
2022-09-22T16:41:26.541Z,15.40
2022-09-22T16:43:57.282Z,15.40
2022-09-22T16:46:29.943Z,15.30
2022-09-22T16:49:00.478Z,15.30
2022-09-22T16:51:29.278Z,15.20
2022-09-22T16:53:57.671Z,15.20
2022-09-22T16:56:27.016Z,15.10
2022-09-22T16:58:56.434Z,15.10
2022-09-22T17:01:24.811Z,15.00
2022-09-22T17:03:53.772Z,14.90
2022-09-22T17:06:24.376Z,14.90
2022-09-22T17:08:52.937Z,14.90
2022-09-22T17:11:21.790Z,14.80
2022-09-22T17:13:50.724Z,14.70
2022-09-22T17:16:22.641Z,14.70
2022-09-22T17:18:52.144Z,14.60
2022-09-22T17:21:21.970Z,14.60
2022-09-22T17:23:50.854Z,14.50
2022-09-22T17:26:20.107Z,14.40
2022-09-22T17:28:48.542Z,14.30
2022-09-22T17:31:16.686Z,14.30
2022-09-22T17:33:51.965Z,14.10
2022-09-22T17:36:22.444Z,14.10
2022-09-22T17:38:52.158Z,14.10
2022-09-22T17:41:21.899Z,13.90
2022-09-22T17:43:53.439Z,13.70
2022-09-22T17:46:21.639Z,13.60
2022-09-22T17:49:08.405Z,13.40
2022-09-22T17:51:52.071Z,13.40
2022-09-22T17:54:40.331Z,13.40
2022-09-22T17:57:09.466Z,13.30
2022-09-22T17:59:38.235Z,13.40
2022-09-22T18:02:08.586Z,13.20
2022-09-22T18:04:38.024Z,13.10
2022-09-22T18:07:07.052Z,13.10
2022-09-22T18:09:35.442Z,12.80
2022-09-22T18:12:04.308Z,12.80
2022-09-22T18:14:33.426Z,12.60
2022-09-22T18:17:03.342Z,12.50
2022-09-22T18:19:32.372Z,12.40
2022-09-22T18:22:02.599Z,12.30
2022-09-22T18:24:30.372Z,12.20
2022-09-22T18:26:58.145Z,12.00
2022-09-22T18:29:26.126Z,12.00
2022-09-22T18:31:54.695Z,11.80
2022-09-22T18:34:23.047Z,11.70
2022-09-22T18:36:50.939Z,11.70
2022-09-22T18:39:20.005Z,11.50
2022-09-22T18:41:47.779Z,11.40
2022-09-22T18:44:15.717Z,11.40
2022-09-22T18:46:47.758Z,11.40
2022-09-22T18:49:16.819Z,11.30
2022-09-22T18:51:49.256Z,11.20
2022-09-22T18:54:19.352Z,11.00
2022-09-22T18:56:50.005Z,11.00
2022-09-22T18:59:19.749Z,10.90
2022-09-22T19:01:49.565Z,11.00
2022-09-22T19:04:21.159Z,11.10
2022-09-22T19:07:08.451Z,10.90
2022-09-22T19:09:36.585Z,10.90
2022-09-22T19:12:08.035Z,10.80
2022-09-22T19:14:38.263Z,10.60
2022-09-22T19:17:07.179Z,10.50
2022-09-22T19:19:37.058Z,10.50
2022-09-22T19:22:09.082Z,10.60
2022-09-22T19:24:37.225Z,10.40
2022-09-22T19:27:08.545Z,10.30
2022-09-22T19:29:36.900Z,10.20
2022-09-22T19:32:07.835Z,10.10
2022-09-22T19:34:35.605Z,10.00
2022-09-22T19:37:04.227Z,9.90
2022-09-22T19:39:32.252Z,9.90
2022-09-22T19:42:00.529Z,9.80
2022-09-22T19:44:32.321Z,9.80
2022-09-22T19:47:00.068Z,9.80
2022-09-22T19:49:29.049Z,9.80
2022-09-22T19:51:57.022Z,9.80
2022-09-22T19:54:24.780Z,9.80
2022-09-22T19:56:52.528Z,9.70
2022-09-22T19:59:20.367Z,9.70
2022-09-22T20:01:49.606Z,9.60
2022-09-22T20:04:20.443Z,9.70
2022-09-22T20:06:48.734Z,9.60
2022-09-22T20:09:16.828Z,9.30
2022-09-22T20:11:47.488Z,9.40
2022-09-22T20:14:23.636Z,9.30
2022-09-22T20:16:54.691Z,9.10
2022-09-22T20:19:24.170Z,9.10
2022-09-22T20:21:54.510Z,8.90
2022-09-22T20:24:23.760Z,8.90
2022-09-22T20:26:53.904Z,8.70
2022-09-22T20:29:21.653Z,8.70
2022-09-22T20:31:49.392Z,8.70
2022-09-22T20:34:19.679Z,8.90
2022-09-22T20:36:47.423Z,8.90
2022-09-22T20:39:15.936Z,8.70
2022-09-22T20:41:44.681Z,8.90
2022-09-22T20:44:16.399Z,8.90
2022-09-22T20:46:44.341Z,9.00
2022-09-22T20:49:13.983Z,8.90
2022-09-22T20:51:43.560Z,8.80
2022-09-22T20:54:11.369Z,8.70
2022-09-22T20:56:42.640Z,8.70
2022-09-22T20:59:11.354Z,8.80
2022-09-22T21:01:39.190Z,8.70
2022-09-22T21:04:07.243Z,8.60
2022-09-22T21:06:35.161Z,8.70
2022-09-22T21:09:21.123Z,8.60
2022-09-22T21:11:48.949Z,8.50
2022-09-22T21:14:17.020Z,8.40
2022-09-22T21:16:49.366Z,8.40
2022-09-22T21:19:17.146Z,8.40
2022-09-22T21:21:45.227Z,8.40
2022-09-22T21:24:14.728Z,8.40
2022-09-22T21:26:42.521Z,8.50
2022-09-22T21:29:10.455Z,8.30
2022-09-22T21:31:38.203Z,8.20
2022-09-22T21:34:06.052Z,8.20
2022-09-22T21:36:33.852Z,8.30
2022-09-22T21:39:01.687Z,8.30
2022-09-22T21:41:32.308Z,8.50
2022-09-22T21:44:03.839Z,8.30
2022-09-22T21:46:31.825Z,8.20
2022-09-22T21:49:02.324Z,8.10
2022-09-22T21:51:34.207Z,8.00
2022-09-22T21:54:03.498Z,8.00
2022-09-22T21:56:33.979Z,8.10
2022-09-22T21:59:03.272Z,8.10
2022-09-22T22:01:32.655Z,8.10
2022-09-22T22:04:02.296Z,8.00
2022-09-22T22:06:31.353Z,8.00
2022-09-22T22:09:02.383Z,7.90
2022-09-22T22:11:33.676Z,7.80
2022-09-22T22:14:02.820Z,7.70
2022-09-22T22:16:32.671Z,7.50
2022-09-22T22:19:00.495Z,7.50
2022-09-22T22:21:30.027Z,7.40
2022-09-22T22:24:19.905Z,7.50
2022-09-22T22:26:51.763Z,7.40
2022-09-22T22:29:20.962Z,7.30
2022-09-22T22:31:50.080Z,7.50
2022-09-22T22:34:19.567Z,7.50
2022-09-22T22:36:48.642Z,7.40
2022-09-22T22:39:16.863Z,7.50
2022-09-22T22:41:45.796Z,7.50
2022-09-22T22:44:16.291Z,7.50
2022-09-22T22:46:44.404Z,7.50
2022-09-22T22:49:12.522Z,7.50
2022-09-22T22:51:43.064Z,7.50
2022-09-22T22:54:11.875Z,7.50
2022-09-22T22:56:42.378Z,7.40
2022-09-22T22:59:11.775Z,7.50
2022-09-22T23:01:43.984Z,7.50
2022-09-22T23:04:12.809Z,7.40
2022-09-22T23:06:43.870Z,7.30
2022-09-22T23:09:14.463Z,7.20
2022-09-22T23:11:42.846Z,7.30
2022-09-22T23:14:12.669Z,7.20
2022-09-22T23:16:43.448Z,7.30
2022-09-22T23:19:13.673Z,7.40
2022-09-22T23:21:41.438Z,7.30
2022-09-22T23:24:09.791Z,7.40
2022-09-22T23:26:38.154Z,7.30
2022-09-22T23:29:06.783Z,7.20
2022-09-22T23:31:34.649Z,7.20
2022-09-22T23:34:03.722Z,7.20
2022-09-22T23:36:31.471Z,7.20
2022-09-22T23:39:03.744Z,7.10
2022-09-22T23:41:32.632Z,7.10
2022-09-22T23:44:00.487Z,7.00
2022-09-22T23:46:28.348Z,6.90
2022-09-22T23:48:56.440Z,6.90
2022-09-22T23:51:26.985Z,6.90
2022-09-22T23:53:54.879Z,6.70
2022-09-22T23:56:22.737Z,6.70
2022-09-22T23:58:51.610Z,6.80
